createdAt,value
2017-07-01T00:00:42.135Z,0.00
2017-07-01T00:01:42.107Z,0.00
2017-07-01T00:02:42.142Z,0.00
2017-07-01T00:03:43.224Z,0.00
2017-07-01T00:04:44.289Z,0.00
2017-07-01T00:05:38.292Z,0.00
2017-07-01T00:06:38.394Z,0.00
2017-07-01T00:07:33.419Z,0.00
2017-07-01T00:08:28.411Z,0.00
2017-07-01T00:09:28.364Z,0.00
2017-07-01T00:10:23.564Z,0.00
2017-07-01T00:11:18.518Z,0.00
2017-07-01T00:12:18.507Z,0.00
2017-07-01T00:13:13.609Z,0.00
2017-07-01T00:14:08.827Z,0.00
2017-07-01T00:15:09.672Z,0.00
2017-07-01T00:16:10.662Z,0.00
2017-07-01T00:17:05.728Z,0.00
2017-07-01T00:17:59.747Z,0.00
2017-07-01T00:18:59.769Z,0.00
2017-07-01T00:19:59.909Z,0.00
2017-07-01T00:20:54.819Z,0.00
2017-07-01T00:21:48.891Z,0.00
2017-07-01T00:22:36.969Z,0.00
2017-07-01T00:23:31.105Z,0.00
2017-07-01T00:24:26.028Z,0.00
2017-07-01T00:25:27.106Z,0.00
2017-07-01T00:26:27.014Z,0.00
2017-07-01T00:27:15.413Z,0.00
2017-07-01T00:28:10.230Z,0.00
2017-07-01T00:29:04.279Z,0.00
2017-07-01T00:30:04.327Z,0.00
2017-07-01T00:30:59.302Z,0.00
2017-07-01T00:31:47.321Z,0.00
2017-07-01T00:32:36.441Z,0.00
2017-07-01T00:33:31.530Z,0.00
2017-07-01T00:34:20.458Z,0.00
2017-07-01T00:35:09.481Z,0.00
2017-07-01T00:36:03.646Z,0.00
2017-07-01T00:36:57.657Z,0.00
2017-07-01T00:37:57.593Z,0.00
2017-07-01T00:38:51.671Z,0.00
2017-07-01T00:39:45.758Z,0.00
2017-07-01T00:40:34.890Z,0.00
2017-07-01T00:41:23.812Z,0.00
2017-07-01T00:42:12.996Z,0.00
2017-07-01T00:43:07.049Z,0.00
2017-07-01T00:43:54.856Z,0.00
2017-07-01T00:44:44.083Z,0.00
2017-07-01T00:45:43.899Z,0.00
2017-07-01T00:46:38.021Z,0.00
2017-07-01T00:47:38.185Z,0.00
2017-07-01T00:48:38.210Z,0.00
2017-07-01T00:49:32.113Z,0.00
2017-07-01T00:50:38.203Z,0.00
2017-07-01T00:51:33.124Z,0.00
2017-07-01T00:52:22.231Z,0.00
2017-07-01T00:53:23.245Z,0.00
2017-07-01T00:54:23.323Z,0.00
2017-07-01T00:55:17.485Z,0.00
2017-07-01T00:56:11.493Z,0.00
2017-07-01T00:57:11.487Z,0.00
2017-07-01T00:58:06.525Z,0.00
2017-07-01T00:59:06.806Z,0.00
2017-07-01T01:00:00.591Z,0.00
2017-07-01T01:01:00.614Z,0.00
2017-07-01T01:01:55.612Z,0.00
2017-07-01T01:02:56.555Z,0.00
2017-07-01T01:03:56.711Z,0.00
2017-07-01T01:04:56.730Z,0.00
2017-07-01T01:05:51.766Z,0.00
2017-07-01T01:06:40.829Z,0.00
2017-07-01T01:07:29.741Z,0.00
2017-07-01T01:08:24.863Z,0.00
2017-07-01T01:09:19.001Z,0.00
2017-07-01T01:10:14.004Z,0.00
2017-07-01T01:11:14.061Z,0.00
2017-07-01T01:12:08.650Z,0.00
2017-07-01T01:13:07.879Z,0.00
2017-07-01T01:14:03.076Z,0.00
2017-07-01T01:15:09.119Z,0.00
2017-07-01T01:16:04.265Z,0.00
2017-07-01T01:16:58.284Z,0.00
2017-07-01T01:17:58.288Z,0.00
2017-07-01T01:18:58.196Z,0.00
2017-07-01T01:19:58.266Z,0.00
2017-07-01T01:21:04.324Z,0.00
2017-07-01T01:21:59.373Z,0.00
2017-07-01T01:22:59.377Z,0.00
2017-07-01T01:23:53.399Z,0.00
2017-07-01T01:24:53.563Z,0.00
2017-07-01T01:25:47.490Z,0.00
2017-07-01T01:26:36.581Z,0.00
2017-07-01T01:27:24.647Z,0.00
2017-07-01T01:28:12.547Z,0.00
2017-07-01T01:29:08.363Z,0.00
2017-07-01T01:30:01.821Z,0.00
2017-07-01T01:30:50.831Z,0.00
2017-07-01T01:31:44.818Z,0.00
2017-07-01T01:32:40.057Z,0.00
2017-07-01T01:33:34.232Z,0.00
2017-07-01T01:34:28.928Z,0.00
2017-07-01T01:35:22.878Z,0.00
2017-07-01T01:36:22.989Z,0.00
2017-07-01T01:37:17.978Z,0.00
2017-07-01T01:38:12.091Z,0.00
2017-07-01T01:39:12.111Z,0.00
2017-07-01T01:40:12.168Z,0.00
2017-07-01T01:41:07.316Z,0.00
2017-07-01T01:41:56.188Z,0.00
2017-07-01T01:42:45.230Z,0.00
2017-07-01T01:43:33.289Z,0.00
2017-07-01T01:44:21.390Z,0.00
2017-07-01T01:45:22.285Z,0.00
2017-07-01T01:46:16.324Z,0.00
2017-07-01T01:47:10.518Z,0.00
2017-07-01T01:48:10.463Z,0.00
2017-07-01T01:49:11.191Z,0.00
2017-07-01T01:50:05.665Z,0.00
2017-07-01T01:51:05.633Z,0.00
2017-07-01T01:52:05.866Z,0.00
2017-07-01T01:52:59.754Z,0.00
2017-07-01T01:53:59.663Z,0.00
2017-07-01T01:54:54.759Z,0.00
2017-07-01T01:55:54.753Z,0.00
2017-07-01T01:56:48.777Z,0.00
2017-07-01T01:57:48.888Z,0.00
2017-07-01T01:58:43.871Z,0.00
2017-07-01T01:59:38.909Z,0.00
2017-07-01T02:00:40.047Z,0.00
2017-07-01T02:01:40.090Z,0.00
2017-07-01T02:02:34.995Z,0.00
2017-07-01T02:03:35.460Z,0.00
2017-07-01T02:04:29.109Z,0.00
2017-07-01T02:05:29.090Z,0.00
2017-07-01T02:06:18.259Z,0.00
2017-07-01T02:07:07.140Z,0.00
2017-07-01T02:07:55.254Z,0.00
2017-07-01T02:08:55.207Z,0.00
2017-07-01T02:09:55.286Z,0.00
2017-07-01T02:10:50.430Z,0.00
2017-07-01T02:11:44.416Z,0.00
2017-07-01T02:12:44.422Z,0.00
2017-07-01T02:13:39.514Z,0.00
2017-07-01T02:14:34.560Z,0.00
2017-07-01T02:15:34.616Z,0.00
2017-07-01T02:16:28.596Z,0.00
2017-07-01T02:17:29.565Z,0.00
2017-07-01T02:18:29.718Z,0.00
2017-07-01T02:19:24.650Z,0.00
2017-07-01T02:20:18.822Z,0.00
2017-07-01T02:21:12.797Z,0.00
2017-07-01T02:22:01.860Z,0.00
2017-07-01T02:23:01.901Z,0.00
2017-07-01T02:24:01.938Z,0.00
2017-07-01T02:24:55.840Z,0.00
2017-07-01T02:25:55.923Z,0.00
2017-07-01T02:26:50.973Z,0.00
2017-07-01T02:27:46.114Z,0.00
2017-07-01T02:28:46.079Z,0.00
2017-07-01T02:29:41.197Z,0.00
2017-07-01T02:30:36.103Z,0.00
2017-07-01T02:31:36.141Z,0.00
2017-07-01T02:32:30.321Z,0.00
2017-07-01T02:33:25.194Z,0.00
2017-07-01T02:34:14.272Z,0.00
2017-07-01T02:35:02.256Z,0.00
2017-07-01T02:35:57.469Z,0.00
2017-07-01T02:36:57.360Z,0.00
2017-07-01T02:37:45.405Z,0.00
2017-07-01T02:38:39.415Z,0.00
2017-07-01T02:39:33.615Z,0.00
2017-07-01T02:40:33.597Z,0.00
2017-07-01T02:41:33.531Z,0.00
2017-07-01T02:42:28.531Z,0.00
2017-07-01T02:43:22.940Z,0.00
2017-07-01T02:44:22.716Z,0.00
2017-07-01T02:45:16.667Z,0.00
2017-07-01T02:46:17.791Z,0.00
2017-07-01T02:47:17.748Z,0.00
2017-07-01T02:48:05.855Z,0.00
2017-07-01T02:48:54.799Z,0.00
2017-07-01T02:49:42.918Z,0.00
2017-07-01T02:50:43.010Z,0.00
2017-07-01T02:51:32.023Z,0.00
2017-07-01T02:52:19.969Z,0.00
2017-07-01T02:53:09.145Z,0.00
2017-07-01T02:53:57.188Z,0.00
2017-07-01T02:54:46.422Z,0.00
2017-07-01T02:55:35.172Z,0.00
2017-07-01T02:56:23.394Z,0.00
2017-07-01T02:57:17.248Z,0.00
2017-07-01T02:58:17.418Z,0.00
2017-07-01T02:59:12.402Z,0.00
2017-07-01T03:00:06.583Z,0.00
2017-07-01T03:01:01.476Z,0.00
2017-07-01T03:01:55.452Z,0.00
2017-07-01T03:02:55.499Z,0.00
2017-07-01T03:03:55.639Z,0.00
2017-07-01T03:04:50.658Z,0.00
2017-07-01T03:05:45.625Z,0.00
2017-07-01T03:06:46.761Z,0.00
2017-07-01T03:07:40.789Z,0.00
2017-07-01T03:08:28.666Z,0.00
2017-07-01T03:09:28.715Z,0.00
2017-07-01T03:10:28.809Z,0.00
2017-07-01T03:11:23.814Z,0.00
2017-07-01T03:12:12.844Z,0.00
2017-07-01T03:13:01.151Z,0.00
2017-07-01T03:13:56.092Z,0.00
2017-07-01T03:14:44.945Z,0.00
2017-07-01T03:15:40.007Z,0.00
2017-07-01T03:16:28.076Z,0.00
2017-07-01T03:17:28.880Z,0.00
2017-07-01T03:18:29.155Z,0.00
2017-07-01T03:19:24.259Z,0.00
2017-07-01T03:20:18.240Z,0.00
2017-07-01T03:21:18.191Z,0.00
2017-07-01T03:22:07.201Z,0.00
2017-07-01T03:22:55.425Z,0.00
2017-07-01T03:23:55.412Z,0.00
2017-07-01T03:24:43.419Z,0.00
2017-07-01T03:25:44.554Z,0.00
2017-07-01T03:26:39.538Z,0.00
2017-07-01T03:27:28.606Z,0.00
2017-07-01T03:28:17.717Z,0.00
2017-07-01T03:29:18.752Z,0.00
2017-07-01T03:30:18.722Z,0.00
2017-07-01T03:31:13.801Z,0.00
2017-07-01T03:32:13.632Z,0.00
2017-07-01T03:33:08.811Z,0.00
2017-07-01T03:34:02.769Z,0.00
2017-07-01T03:34:57.932Z,0.00
2017-07-01T03:35:52.062Z,0.00
2017-07-01T03:36:46.961Z,0.00
2017-07-01T03:37:46.941Z,0.00
2017-07-01T03:38:41.142Z,0.00
2017-07-01T03:39:41.070Z,0.00
2017-07-01T03:40:36.100Z,0.00
2017-07-01T03:41:24.099Z,0.01
2017-07-01T03:42:25.361Z,0.01
2017-07-01T03:43:26.851Z,0.01
2017-07-01T03:44:21.259Z,0.01
2017-07-01T03:45:16.298Z,0.01
2017-07-01T03:46:04.338Z,0.01
2017-07-01T03:47:10.380Z,0.01
2017-07-01T03:48:05.009Z,0.01
2017-07-01T03:49:04.348Z,0.01
2017-07-01T03:49:59.483Z,0.01
2017-07-01T03:50:48.609Z,0.01
2017-07-01T03:51:42.601Z,0.01
2017-07-01T03:52:42.513Z,0.01
2017-07-01T03:53:48.555Z,0.01
2017-07-01T03:54:43.602Z,0.00
2017-07-01T03:55:32.697Z,0.01
2017-07-01T03:56:32.734Z,0.01
2017-07-01T03:57:26.760Z,0.01
2017-07-01T03:58:14.770Z,0.01
2017-07-01T03:59:03.839Z,0.01
2017-07-01T03:59:51.949Z,0.01
2017-07-01T04:00:45.913Z,0.01
2017-07-01T04:01:46.012Z,0.01
2017-07-01T04:02:35.081Z,0.01
2017-07-01T04:03:29.577Z,0.01
2017-07-01T04:04:23.103Z,0.01
2017-07-01T04:05:12.140Z,0.01
2017-07-01T04:06:06.096Z,0.01
2017-07-01T04:06:55.234Z,0.01
2017-07-01T04:07:55.348Z,0.01
2017-07-01T04:08:55.210Z,0.01
2017-07-01T04:09:55.344Z,0.01
2017-07-01T04:10:55.606Z,0.01
2017-07-01T04:11:50.466Z,0.01
2017-07-01T04:12:39.406Z,0.01
2017-07-01T04:13:33.482Z,0.01
2017-07-01T04:14:27.437Z,0.01
2017-07-01T04:15:16.601Z,0.01
2017-07-01T04:16:04.673Z,0.01
2017-07-01T04:16:58.634Z,0.02
2017-07-01T04:17:52.720Z,0.02
2017-07-01T04:18:53.848Z,0.02
2017-07-01T04:19:48.757Z,0.02
2017-07-01T04:20:36.776Z,0.02
2017-07-01T04:21:30.770Z,0.02
2017-07-01T04:22:31.050Z,0.02
2017-07-01T04:23:18.973Z,0.02
2017-07-01T04:24:13.901Z,0.02
2017-07-01T04:25:13.953Z,0.01
2017-07-01T04:26:09.025Z,0.01
2017-07-01T04:27:03.094Z,0.01
2017-07-01T04:28:03.691Z,0.01
2017-07-01T04:28:58.222Z,0.01
2017-07-01T04:29:46.173Z,0.01
2017-07-01T04:30:41.158Z,0.01
2017-07-01T04:31:41.327Z,0.01
2017-07-01T04:32:41.290Z,0.00
2017-07-01T04:33:41.385Z,0.01
2017-07-01T04:34:36.440Z,0.01
2017-07-01T04:35:30.440Z,0.00
2017-07-01T04:36:19.535Z,0.01
2017-07-01T04:37:14.541Z,0.01
2017-07-01T04:38:08.576Z,0.01
2017-07-01T04:39:08.503Z,0.01
2017-07-01T04:40:03.322Z,0.01
2017-07-01T04:41:02.717Z,0.01
2017-07-01T04:41:57.618Z,0.02
2017-07-01T04:42:52.650Z,0.02
2017-07-01T04:43:52.810Z,0.02
2017-07-01T04:44:46.827Z,0.01
2017-07-01T04:45:41.699Z,0.02
2017-07-01T04:46:41.905Z,0.02
2017-07-01T04:47:35.868Z,0.02
2017-07-01T04:48:35.963Z,0.02
2017-07-01T04:49:24.979Z,0.02
2017-07-01T04:50:19.136Z,0.02
2017-07-01T04:51:13.213Z,0.02
2017-07-01T04:52:13.247Z,0.03
2017-07-01T04:53:02.187Z,0.02
2017-07-01T04:53:56.097Z,0.02
2017-07-01T04:54:51.199Z,0.02
2017-07-01T04:55:51.296Z,0.02
2017-07-01T04:56:46.370Z,0.01
2017-07-01T04:57:35.356Z,0.01
2017-07-01T04:58:30.896Z,0.01
2017-07-01T04:59:24.395Z,0.01
2017-07-01T05:00:13.555Z,0.02
2017-07-01T05:01:07.545Z,0.02
2017-07-01T05:02:07.663Z,0.02
2017-07-01T05:03:02.589Z,0.03
2017-07-01T05:03:57.584Z,0.04
2017-07-01T05:04:58.815Z,0.03
2017-07-01T05:05:52.741Z,0.03
2017-07-01T05:06:46.862Z,0.04
2017-07-01T05:07:47.825Z,0.04
2017-07-01T05:08:42.073Z,0.04
2017-07-01T05:09:35.738Z,0.03
2017-07-01T05:10:35.881Z,0.03
2017-07-01T05:11:24.912Z,0.03
2017-07-01T05:12:19.948Z,0.03
2017-07-01T05:13:20.047Z,0.03
2017-07-01T05:14:15.200Z,0.03
2017-07-01T05:15:09.128Z,0.02
2017-07-01T05:16:03.661Z,0.02
2017-07-01T05:16:58.102Z,0.01
2017-07-01T05:17:58.264Z,0.02
2017-07-01T05:18:53.278Z,0.02
2017-07-01T05:19:48.255Z,0.02
2017-07-01T05:20:48.368Z,0.02
2017-07-01T05:21:42.309Z,0.02
2017-07-01T05:22:31.416Z,0.02
2017-07-01T05:23:25.414Z,0.02
2017-07-01T05:24:20.472Z,0.02
2017-07-01T05:25:15.616Z,0.02
2017-07-01T05:26:04.586Z,0.02
2017-07-01T05:26:52.634Z,0.02
2017-07-01T05:27:41.646Z,0.02
2017-07-01T05:28:31.113Z,0.03
2017-07-01T05:29:24.733Z,0.04
2017-07-01T05:30:18.719Z,0.04
2017-07-01T05:31:18.776Z,0.05
2017-07-01T05:32:12.892Z,0.05
2017-07-01T05:33:06.855Z,0.05
2017-07-01T05:34:06.874Z,0.04
2017-07-01T05:35:00.979Z,0.03
2017-07-01T05:36:01.617Z,0.03
2017-07-01T05:36:49.968Z,0.02
2017-07-01T05:37:50.109Z,0.03
2017-07-01T05:38:44.242Z,0.03
2017-07-01T05:39:32.135Z,0.03
2017-07-01T05:40:21.176Z,0.03
2017-07-01T05:41:21.471Z,0.03
2017-07-01T05:42:15.351Z,0.03
2017-07-01T05:43:10.335Z,0.03
2017-07-01T05:44:04.512Z,0.04
2017-07-01T05:44:58.296Z,0.03
2017-07-01T05:45:53.376Z,0.04
2017-07-01T05:46:47.492Z,0.04
2017-07-01T05:47:47.539Z,0.05
2017-07-01T05:48:41.598Z,0.05
2017-07-01T05:49:41.567Z,0.05
2017-07-01T05:50:41.600Z,0.04
2017-07-01T05:51:29.754Z,0.04
2017-07-01T05:52:23.940Z,0.04
2017-07-01T05:53:11.802Z,0.03
2017-07-01T05:54:12.825Z,0.03
2017-07-01T05:55:07.761Z,0.03
2017-07-01T05:56:03.158Z,0.03
2017-07-01T05:56:51.869Z,0.03
2017-07-01T05:57:41.050Z,0.03
2017-07-01T05:58:29.708Z,0.03
2017-07-01T05:59:17.099Z,0.02
2017-07-01T06:00:11.079Z,0.02
2017-07-01T06:01:06.121Z,0.02
2017-07-01T06:02:06.187Z,0.02
2017-07-01T06:02:55.232Z,0.02
2017-07-01T06:03:49.269Z,0.03
2017-07-01T06:04:43.253Z,0.03
2017-07-01T06:05:37.310Z,0.05
2017-07-01T06:06:37.439Z,0.07
2017-07-01T06:07:32.364Z,0.07
2017-07-01T06:08:21.686Z,0.07
2017-07-01T06:09:09.536Z,0.06
2017-07-01T06:10:04.450Z,0.05
2017-07-01T06:10:59.725Z,0.06
2017-07-01T06:11:48.633Z,0.06
2017-07-01T06:12:36.778Z,0.06
2017-07-01T06:13:31.515Z,0.05
2017-07-01T06:14:25.840Z,0.05
2017-07-01T06:15:19.787Z,0.05
2017-07-01T06:16:14.794Z,0.06
2017-07-01T06:17:08.918Z,0.07
2017-07-01T06:17:57.972Z,0.07
2017-07-01T06:18:52.913Z,0.08
2017-07-01T06:19:41.129Z,0.08
2017-07-01T06:20:30.029Z,0.09
2017-07-01T06:21:25.096Z,0.11
2017-07-01T06:22:20.178Z,0.13
2017-07-01T06:23:15.210Z,0.14
2017-07-01T06:24:09.194Z,0.15
2017-07-01T06:25:03.313Z,0.15
2017-07-01T06:25:51.449Z,0.16
2017-07-01T06:26:40.396Z,0.16
2017-07-01T06:27:34.369Z,0.17
2017-07-01T06:28:28.451Z,0.17
2017-07-01T06:29:16.687Z,0.16
2017-07-01T06:30:10.432Z,0.15
2017-07-01T06:30:59.664Z,0.14
2017-07-01T06:31:48.758Z,0.13
2017-07-01T06:32:37.742Z,0.12
2017-07-01T06:33:32.247Z,0.11
2017-07-01T06:34:20.819Z,0.09
2017-07-01T06:35:08.767Z,0.08
2017-07-01T06:35:57.802Z,0.09
2017-07-01T06:36:51.865Z,0.09
2017-07-01T06:37:40.963Z,0.07
2017-07-01T06:38:40.933Z,0.07
2017-07-01T06:39:34.930Z,0.07
2017-07-01T06:40:28.912Z,0.08
2017-07-01T06:41:17.125Z,0.08
2017-07-01T06:42:17.045Z,0.07
2017-07-01T06:43:06.298Z,0.06
2017-07-01T06:44:00.842Z,0.06
2017-07-01T06:44:55.281Z,0.05
2017-07-01T06:45:49.369Z,0.06
2017-07-01T06:46:37.305Z,0.07
2017-07-01T06:47:31.448Z,0.07
2017-07-01T06:48:25.383Z,0.08
2017-07-01T06:49:25.401Z,0.08
2017-07-01T06:50:13.484Z,0.08
2017-07-01T06:51:08.511Z,0.09
2017-07-01T06:52:02.605Z,0.08
2017-07-01T06:52:50.566Z,0.08
2017-07-01T06:53:45.944Z,0.08
2017-07-01T06:54:40.758Z,0.09
2017-07-01T06:55:35.704Z,0.09
2017-07-01T06:56:23.812Z,0.10
2017-07-01T06:57:23.802Z,0.10
2017-07-01T06:58:17.872Z,0.08
2017-07-01T06:59:12.010Z,0.08
2017-07-01T07:00:06.965Z,0.09
2017-07-01T07:00:55.232Z,0.09
2017-07-01T07:01:54.974Z,0.10
2017-07-01T07:02:44.096Z,0.10
2017-07-01T07:03:38.056Z,0.11
2017-07-01T07:04:38.219Z,0.12
2017-07-01T07:05:27.158Z,0.12
2017-07-01T07:06:21.361Z,0.12
2017-07-01T07:07:15.231Z,0.12
2017-07-01T07:08:04.299Z,0.12
2017-07-01T07:08:58.431Z,0.12
2017-07-01T07:09:58.440Z,0.12
2017-07-01T07:10:46.489Z,0.13
2017-07-01T07:11:34.507Z,0.13
2017-07-01T07:12:28.548Z,0.14
2017-07-01T07:13:17.607Z,0.13
2017-07-01T07:14:05.591Z,0.13
2017-07-01T07:14:53.706Z,0.12
2017-07-01T07:15:47.653Z,0.12
2017-07-01T07:16:37.189Z,0.10
2017-07-01T07:17:25.888Z,0.09
2017-07-01T07:18:19.846Z,0.08
2017-07-01T07:19:07.906Z,0.09
2017-07-01T07:20:01.925Z,0.10
2017-07-01T07:20:50.065Z,0.11
2017-07-01T07:21:39.123Z,0.11
2017-07-01T07:22:33.165Z,0.12
2017-07-01T07:23:21.237Z,0.13
2017-07-01T07:24:09.205Z,0.12
2017-07-01T07:24:58.085Z,0.11
2017-07-01T07:25:46.394Z,0.12
2017-07-01T07:26:40.432Z,0.13
2017-07-01T07:27:28.348Z,0.14
2017-07-01T07:28:23.357Z,0.16
2017-07-01T07:29:17.429Z,0.17
2017-07-01T07:30:23.516Z,0.16
2017-07-01T07:31:18.603Z,0.18
2017-07-01T07:32:07.676Z,0.18
2017-07-01T07:33:07.640Z,0.18
2017-07-01T07:33:56.696Z,0.17
2017-07-01T07:34:45.732Z,0.17
2017-07-01T07:35:34.693Z,0.17
2017-07-01T07:36:23.780Z,0.17
2017-07-01T07:37:18.765Z,0.16
2017-07-01T07:38:18.898Z,0.17
2017-07-01T07:39:12.902Z,0.18
2017-07-01T07:40:06.909Z,0.19
2017-07-01T07:41:02.016Z,0.18
2017-07-01T07:41:56.184Z,0.18
2017-07-01T07:42:50.150Z,0.17
2017-07-01T07:43:44.073Z,0.14
2017-07-01T07:44:32.287Z,0.13
2017-07-01T07:45:21.151Z,0.15
2017-07-01T07:46:15.288Z,0.19
2017-07-01T07:47:04.354Z,0.22
2017-07-01T07:47:59.050Z,0.22
2017-07-01T07:48:46.456Z,0.22
2017-07-01T07:49:35.500Z,0.21
2017-07-01T07:50:29.569Z,0.20
2017-07-01T07:51:29.474Z,0.22
2017-07-01T07:52:23.650Z,0.23
2017-07-01T07:53:12.604Z,0.24
2017-07-01T07:54:06.655Z,0.25
2017-07-01T07:55:00.637Z,0.26
2017-07-01T07:56:01.677Z,0.26
2017-07-01T07:57:02.803Z,0.27
2017-07-01T07:58:02.754Z,0.27
2017-07-01T07:58:51.892Z,0.29
2017-07-01T07:59:45.897Z,0.29
2017-07-01T08:00:39.983Z,0.26
2017-07-01T08:01:29.010Z,0.25
2017-07-01T08:02:18.191Z,0.25
2017-07-01T08:03:12.057Z,0.25
2017-07-01T08:04:01.383Z,0.25
2017-07-01T08:04:55.267Z,0.22
2017-07-01T08:05:49.255Z,0.23
2017-07-01T08:06:37.271Z,0.25
2017-07-01T08:07:37.506Z,0.25
2017-07-01T08:08:26.385Z,0.23
2017-07-01T08:09:20.444Z,0.18
2017-07-01T08:10:09.484Z,0.20
2017-07-01T08:11:10.474Z,0.19
2017-07-01T08:12:11.519Z,0.18
2017-07-01T08:13:11.658Z,0.16
2017-07-01T08:14:05.645Z,0.18
2017-07-01T08:15:05.666Z,0.24
2017-07-01T08:15:53.748Z,0.27
2017-07-01T08:16:54.769Z,0.26
2017-07-01T08:17:49.772Z,0.28
2017-07-01T08:18:43.834Z,0.33
2017-07-01T08:19:37.878Z,0.33
2017-07-01T08:20:26.105Z,0.31
2017-07-01T08:21:21.137Z,0.26
2017-07-01T08:22:09.994Z,0.22
2017-07-01T08:23:04.221Z,0.23
2017-07-01T08:23:52.087Z,0.25
2017-07-01T08:24:47.229Z,0.19
2017-07-01T08:25:36.308Z,0.18
2017-07-01T08:26:30.229Z,0.19
2017-07-01T08:27:19.308Z,0.20
2017-07-01T08:28:08.556Z,0.20
2017-07-01T08:29:08.451Z,0.15
2017-07-01T08:30:02.489Z,0.14
2017-07-01T08:31:02.547Z,0.17
2017-07-01T08:31:57.282Z,0.17
2017-07-01T08:32:44.630Z,0.17
2017-07-01T08:33:34.149Z,0.22
2017-07-01T08:34:33.698Z,0.26
2017-07-01T08:35:28.659Z,0.26
2017-07-01T08:36:23.914Z,0.27
2017-07-01T08:37:23.861Z,0.27
2017-07-01T08:38:12.879Z,0.26
2017-07-01T08:39:07.422Z,0.25
2017-07-01T08:40:07.985Z,0.22
2017-07-01T08:41:07.974Z,0.20
2017-07-01T08:42:03.109Z,0.19
2017-07-01T08:42:58.152Z,0.18
2017-07-01T08:43:58.616Z,0.18
2017-07-01T08:44:53.148Z,0.18
2017-07-01T08:45:48.267Z,0.19
2017-07-01T08:46:42.308Z,0.21
2017-07-01T08:47:42.291Z,0.22
2017-07-01T08:48:30.293Z,0.20
2017-07-01T08:49:25.429Z,0.19
2017-07-01T08:50:20.411Z,0.20
2017-07-01T08:51:08.613Z,0.21
2017-07-01T08:51:57.082Z,0.21
2017-07-01T08:52:51.832Z,0.20
2017-07-01T08:53:51.662Z,0.17
2017-07-01T08:54:45.736Z,0.15
2017-07-01T08:55:33.671Z,0.16
2017-07-01T08:56:27.810Z,0.16
2017-07-01T08:57:21.916Z,0.12
2017-07-01T08:58:16.236Z,0.10
2017-07-01T08:59:16.870Z,0.08
2017-07-01T09:00:11.977Z,0.07
2017-07-01T09:00:59.960Z,0.06
2017-07-01T09:01:49.073Z,0.07
2017-07-01T09:02:38.078Z,0.09
2017-07-01T09:03:32.246Z,0.11
2017-07-01T09:04:26.205Z,0.11
2017-07-01T09:05:26.263Z,0.10
2017-07-01T09:06:21.297Z,0.12
2017-07-01T09:07:15.249Z,0.14
2017-07-01T09:08:15.359Z,0.17
2017-07-01T09:09:10.429Z,0.17
2017-07-01T09:10:04.328Z,0.16
2017-07-01T09:11:04.554Z,0.14
2017-07-01T09:11:58.665Z,0.15
2017-07-01T09:12:46.661Z,0.14
2017-07-01T09:13:41.625Z,0.13
2017-07-01T09:14:30.691Z,0.13
2017-07-01T09:15:19.719Z,0.14
2017-07-01T09:16:07.808Z,0.15
2017-07-01T09:16:56.783Z,0.14
2017-07-01T09:17:51.826Z,0.16
2017-07-01T09:18:45.851Z,0.16
2017-07-01T09:19:39.943Z,0.19
2017-07-01T09:20:33.924Z,0.21
2017-07-01T09:21:29.009Z,0.20
2017-07-01T09:22:18.014Z,0.20
2017-07-01T09:23:07.277Z,0.22
2017-07-01T09:24:01.126Z,0.24
2017-07-01T09:25:01.277Z,0.23
2017-07-01T09:25:55.118Z,0.23
2017-07-01T09:26:49.211Z,0.22
2017-07-01T09:27:43.354Z,0.21
2017-07-01T09:28:39.100Z,0.19
2017-07-01T09:29:33.442Z,0.18
2017-07-01T09:30:33.366Z,0.18
2017-07-01T09:31:21.457Z,0.18
2017-07-01T09:32:15.397Z,0.17
2017-07-01T09:33:09.563Z,0.17
2017-07-01T09:34:09.729Z,0.13
2017-07-01T09:35:03.763Z,0.09
2017-07-01T09:35:58.714Z,0.10
2017-07-01T09:36:47.680Z,0.10
2017-07-01T09:37:42.822Z,0.11
2017-07-01T09:38:30.895Z,0.11
2017-07-01T09:39:24.986Z,0.13
2017-07-01T09:40:24.955Z,0.14
2017-07-01T09:41:14.035Z,0.13
2017-07-01T09:42:08.065Z,0.14
2017-07-01T09:43:02.123Z,0.13
2017-07-01T09:44:02.099Z,0.13
2017-07-01T09:45:02.089Z,0.12
2017-07-01T09:45:50.125Z,0.13
2017-07-01T09:46:44.229Z,0.16
2017-07-01T09:47:38.266Z,0.20
2017-07-01T09:48:33.270Z,0.26
2017-07-01T09:49:33.436Z,0.27
2017-07-01T09:50:22.366Z,0.28
2017-07-01T09:51:17.346Z,0.28
2017-07-01T09:52:17.487Z,0.27
2017-07-01T09:53:06.576Z,0.30
2017-07-01T09:53:54.668Z,0.32
2017-07-01T09:54:54.597Z,0.32
2017-07-01T09:55:43.676Z,0.38
2017-07-01T09:56:31.697Z,0.39
2017-07-01T09:57:26.972Z,0.39
2017-07-01T09:58:26.874Z,0.37
2017-07-01T09:59:14.889Z,0.39
2017-07-01T10:00:08.940Z,0.38
2017-07-01T10:00:57.861Z,0.34
2017-07-01T10:01:46.010Z,0.29
2017-07-01T10:02:46.006Z,0.27
2017-07-01T10:03:35.812Z,0.39
2017-07-01T10:04:29.067Z,0.39
2017-07-01T10:05:29.256Z,0.32
2017-07-01T10:06:23.243Z,0.32
2017-07-01T10:07:23.305Z,0.30
2017-07-01T10:08:17.280Z,0.29
2017-07-01T10:09:11.290Z,0.27
2017-07-01T10:10:05.402Z,0.27
2017-07-01T10:10:54.424Z,0.25
2017-07-01T10:11:49.475Z,0.29
2017-07-01T10:12:37.546Z,0.30
2017-07-01T10:13:26.885Z,0.28
2017-07-01T10:14:15.729Z,0.28
2017-07-01T10:15:04.814Z,0.29
2017-07-01T10:15:54.244Z,0.37
2017-07-01T10:16:47.823Z,0.49
2017-07-01T10:17:36.813Z,0.54
2017-07-01T10:18:31.018Z,0.52
2017-07-01T10:19:25.943Z,0.47
2017-07-01T10:20:14.025Z,0.45
2017-07-01T10:21:08.038Z,0.42
2017-07-01T10:22:08.231Z,0.40
2017-07-01T10:22:57.045Z,0.40
2017-07-01T10:23:51.330Z,0.39
2017-07-01T10:24:51.358Z,0.40
2017-07-01T10:25:46.370Z,0.36
2017-07-01T10:26:41.216Z,0.27
2017-07-01T10:27:42.382Z,0.25
2017-07-01T10:28:42.401Z,0.22
2017-07-01T10:29:36.752Z,0.18
2017-07-01T10:30:31.582Z,0.18
2017-07-01T10:31:25.601Z,0.16
2017-07-01T10:32:19.684Z,0.14
2017-07-01T10:33:19.662Z,0.12
2017-07-01T10:34:14.705Z,0.13
2017-07-01T10:35:08.802Z,0.15
2017-07-01T10:36:02.818Z,0.15
2017-07-01T10:36:50.842Z,0.16
2017-07-01T10:37:44.886Z,0.14
2017-07-01T10:38:33.030Z,0.13
2017-07-01T10:39:27.009Z,0.13
2017-07-01T10:40:15.017Z,0.14
2017-07-01T10:41:09.195Z,0.13
2017-07-01T10:42:03.103Z,0.13
2017-07-01T10:43:03.256Z,0.15
2017-07-01T10:43:57.377Z,0.14
2017-07-01T10:44:52.274Z,0.11
2017-07-01T10:45:40.490Z,0.10
2017-07-01T10:46:35.290Z,0.11
2017-07-01T10:47:29.411Z,0.13
2017-07-01T10:48:17.398Z,0.12
2017-07-01T10:49:05.484Z,0.11
2017-07-01T10:49:53.580Z,0.11
2017-07-01T10:50:48.555Z,0.12
2017-07-01T10:51:42.625Z,0.13
2017-07-01T10:52:37.768Z,0.14
2017-07-01T10:53:31.720Z,0.14
2017-07-01T10:54:31.842Z,0.14
2017-07-01T10:55:25.845Z,0.13
2017-07-01T10:56:13.883Z,0.12
2017-07-01T10:57:07.871Z,0.11
2017-07-01T10:58:02.021Z,0.13
2017-07-01T10:58:50.089Z,0.14
2017-07-01T10:59:44.081Z,0.15
2017-07-01T11:00:33.091Z,0.18
2017-07-01T11:01:28.208Z,0.27
2017-07-01T11:02:23.145Z,0.35
2017-07-01T11:03:23.307Z,0.28
2017-07-01T11:04:11.260Z,0.24
2017-07-01T11:05:00.344Z,0.19
2017-07-01T11:06:00.377Z,0.16
2017-07-01T11:06:49.401Z,0.16
2017-07-01T11:07:38.395Z,0.16
2017-07-01T11:08:26.497Z,0.15
2017-07-01T11:09:14.554Z,0.18
2017-07-01T11:10:08.488Z,0.18
2017-07-01T11:10:57.679Z,0.21
2017-07-01T11:11:45.835Z,0.22
2017-07-01T11:12:40.767Z,0.22
2017-07-01T11:13:34.832Z,0.21
2017-07-01T11:14:28.806Z,0.20
2017-07-01T11:15:17.832Z,0.18
2017-07-01T11:16:18.863Z,0.19
2017-07-01T11:17:18.921Z,0.21
2017-07-01T11:18:14.005Z,0.23
2017-07-01T11:19:07.993Z,0.22
2017-07-01T11:20:03.095Z,0.23
2017-07-01T11:20:51.033Z,0.22
2017-07-01T11:21:39.087Z,0.20
2017-07-01T11:22:33.207Z,0.18
2017-07-01T11:23:27.307Z,0.20
2017-07-01T11:24:15.281Z,0.21
2017-07-01T11:25:09.501Z,0.25
2017-07-01T11:25:58.335Z,0.29
2017-07-01T11:26:53.478Z,0.34
2017-07-01T11:27:42.546Z,0.35
2017-07-01T11:28:38.254Z,0.36
2017-07-01T11:29:31.624Z,0.41
2017-07-01T11:30:27.025Z,0.47
2017-07-01T11:31:20.675Z,0.45
2017-07-01T11:32:21.733Z,0.42
2017-07-01T11:33:15.886Z,0.42
2017-07-01T11:34:10.560Z,0.41
2017-07-01T11:35:04.845Z,0.41
2017-07-01T11:35:59.983Z,0.38
2017-07-01T11:36:48.975Z,0.34
2017-07-01T11:37:42.979Z,0.28
2017-07-01T11:38:43.014Z,0.25
2017-07-01T11:39:37.226Z,0.22
2017-07-01T11:40:37.110Z,0.18
2017-07-01T11:41:26.258Z,0.16
2017-07-01T11:42:20.181Z,0.14
2017-07-01T11:43:14.288Z,0.13
2017-07-01T11:44:02.259Z,0.14
2017-07-01T11:44:50.457Z,0.14
2017-07-01T11:45:44.535Z,0.15
2017-07-01T11:46:38.612Z,0.14
2017-07-01T11:47:32.590Z,0.14
2017-07-01T11:48:27.636Z,0.15
2017-07-01T11:49:16.751Z,0.15
2017-07-01T11:50:11.788Z,0.17
2017-07-01T11:51:11.658Z,0.19
2017-07-01T11:52:06.767Z,0.22
2017-07-01T11:53:00.831Z,0.22
2017-07-01T11:53:54.874Z,0.21
2017-07-01T11:54:49.926Z,0.21
2017-07-01T11:55:45.118Z,0.24
2017-07-01T11:56:32.929Z,0.25
2017-07-01T11:57:22.068Z,0.27
2017-07-01T11:58:11.271Z,0.28
2017-07-01T11:59:06.231Z,0.28
2017-07-01T11:59:54.375Z,0.27
2017-07-01T12:00:42.183Z,0.26
2017-07-01T12:01:31.244Z,0.25